Time;durP1;ratioP1;P1;durP2;ratioP2;P2;SDS_P1;SDS_P2;PMS_P1;PMS_P2;Temp;Humidity;BMP_temperature;BMP_pressure;BME280_temperature;BME280_humidity;BME280_pressure;Samples;Min_cycle;Max_cycle;Signal;HPM_P1;HPM_P2
2022/12/11 00:02:03;;;;;;;41.60;24.00;;;;;;;1.10;72.35;99487.54;103746;1307;22891;-81
2022/12/11 00:04:30;;;;;;;40.00;22.70;;;;;;;1.09;72.11;99482.66;103523;1301;22502;-79
2022/12/11 00:06:57;;;;;;;37.10;23.10;;;;;;;1.01;72.11;99485.14;103494;1306;24249;-80
2022/12/11 00:09:24;;;;;;;38.40;24.40;;;;;;;0.97;72.31;99489.93;103579;1306;22460;-80
2022/12/11 00:11:50;;;;;;;37.50;22.80;;;;;;;0.96;72.39;99490.95;103653;1307;23902;-78
2022/12/11 00:14:16;;;;;;;40.90;23.40;;;;;;;0.93;72.50;99491.45;103452;1299;25619;-81
2022/12/11 00:16:42;;;;;;;41.50;23.50;;;;;;;0.94;72.68;99493.19;103465;1307;25236;-81
2022/12/11 00:19:08;;;;;;;40.00;23.30;;;;;;;0.96;72.57;99495.64;103387;1307;22443;-80
2022/12/11 00:21:35;;;;;;;42.60;24.40;;;;;;;0.85;72.35;99495.13;103326;1310;22422;-79
2022/12/11 00:24:01;;;;;;;37.90;23.70;;;;;;;0.85;72.66;99497.72;103333;1308;25362;-80
2022/12/11 00:26:27;;;;;;;42.80;25.30;;;;;;;0.87;72.73;99500.02;103327;1310;24033;-77
2022/12/11 00:28:55;;;;;;;41.00;23.60;;;;;;;0.93;72.89;99507.57;103273;1308;22500;-80
2022/12/11 00:31:23;;;;;;;40.70;24.00;;;;;;;1.01;72.92;99501.43;103170;1308;22471;-78
2022/12/11 00:33:50;;;;;;;37.50;23.20;;;;;;;1.05;72.79;99498.73;102782;1313;22481;-80
2022/12/11 00:36:22;;;;;;;39.10;23.00;;;;;;;0.98;72.25;99497.25;102937;1309;22465;-79
2022/12/11 00:38:50;;;;;;;40.20;24.20;;;;;;;0.91;72.55;99494.88;103088;1313;22486;-83
2022/12/11 00:41:17;;;;;;;42.70;22.40;;;;;;;0.93;72.87;99493.36;103259;1310;23873;-82
2022/12/11 00:43:44;;;;;;;37.70;22.90;;;;;;;1.00;72.88;99493.09;103244;1309;25363;-81
2022/12/11 00:46:11;;;;;;;37.20;22.20;;;;;;;1.01;72.63;99489.12;103192;1310;25262;-79
2022/12/11 00:48:38;;;;;;;41.00;23.40;;;;;;;0.97;72.35;99484.23;103179;1310;24274;-82
2022/12/11 00:51:05;;;;;;;38.80;21.30;;;;;;;0.94;72.44;99484.17;103054;1311;22542;-76
2022/12/11 00:53:31;;;;;;;37.50;22.30;;;;;;;1.00;72.70;99484.09;103659;1307;22472;-78
2022/12/11 00:55:58;;;;;;;36.30;22.10;;;;;;;1.00;72.47;99483.57;103432;1307;22620;-76
2022/12/11 00:58:24;;;;;;;33.90;22.30;;;;;;;0.95;72.33;99486.27;103891;1306;22858;-80
2022/12/11 01:00:51;;;;;;;34.90;22.70;;;;;;;0.90;72.26;99486.20;104390;1307;22695;-79
2022/12/11 01:03:18;;;;;;;36.20;21.30;;;;;;;0.82;72.10;99490.05;103918;1307;23206;-79
2022/12/11 01:05:53;;;;;;;34.10;22.90;;;;;;;0.67;72.15;99488.27;104103;1306;25344;-79
2022/12/11 01:08:20;;;;;;;33.60;21.90;;;;;;;0.59;72.54;99495.58;104191;1299;22640;-78
2022/12/11 01:10:46;;;;;;;34.30;19.80;;;;;;;0.59;72.60;99496.78;104023;1305;22527;-79
2022/12/11 01:13:12;;;;;;;31.90;18.90;;;;;;;0.53;72.72;99499.98;103506;1307;22477;-80
2022/12/11 01:15:44;;;;;;;32.80;18.90;;;;;;;0.55;72.68;99501.05;104352;1301;23934;-77
2022/12/11 01:18:12;;;;;;;28.00;17.30;;;;;;;0.57;72.65;99497.09;104386;1306;22466;-79
2022/12/11 01:20:41;;;;;;;30.80;18.80;;;;;;;0.53;72.36;99495.12;104350;1301;22471;-81
2022/12/11 01:23:11;;;;;;;29.10;17.80;;;;;;;0.54;72.74;99493.25;104397;1307;22508;-81
2022/12/11 01:25:38;;;;;;;28.50;18.50;;;;;;;0.61;72.77;99487.45;103688;1304;22483;-79
2022/12/11 01:28:06;;;;;;;28.70;18.20;;;;;;;0.66;72.60;99478.70;103211;1310;22494;-79
2022/12/11 01:30:33;;;;;;;25.80;17.00;;;;;;;0.67;72.49;99472.84;103232;1310;22593;-79
2022/12/11 01:32:59;;;;;;;28.30;17.50;;;;;;;0.64;72.30;99476.09;103209;1310;22948;-83
2022/12/11 01:35:27;;;;;;;25.70;16.30;;;;;;;0.65;72.21;99468.13;103203;1310;22465;-80
2022/12/11 01:37:55;;;;;;;26.20;16.50;;;;;;;0.68;72.27;99463.48;103220;1303;25367;-80
2022/12/11 01:40:22;;;;;;;24.40;16.20;;;;;;;0.63;71.87;99451.96;103102;1310;24272;-83
2022/12/11 01:42:49;;;;;;;26.00;15.40;;;;;;;0.59;72.15;99445.14;103423;1310;22510;-85
2022/12/11 01:45:21;;;;;;;26.20;16.20;;;;;;;0.56;71.89;99445.10;103676;1306;26567;-86
2022/12/11 01:48:13;;;;;;;25.90;16.10;;;;;;;0.57;72.19;99441.46;103544;1307;25419;-81
2022/12/11 01:50:46;;;;;;;23.90;14.40;;;;;;;0.60;71.98;99436.85;103433;1299;22464;-84
2022/12/11 01:53:19;;;;;;;26.80;15.80;;;;;;;0.62;71.97;99430.64;103395;1307;22496;-79
2022/12/11 01:55:48;;;;;;;24.30;14.80;;;;;;;0.68;72.05;99432.64;103599;1307;22725;-85
2022/12/11 01:58:17;;;;;;;24.80;14.80;;;;;;;0.72;71.80;99430.64;103388;1306;24303;-84
2022/12/11 02:00:44;;;;;;;26.50;16.00;;;;;;;0.74;71.61;99428.06;103291;1307;22481;-81
2022/12/11 02:03:10;;;;;;;26.50;16.60;;;;;;;0.76;71.48;99433.64;103361;1307;24231;-80
2022/12/11 02:05:37;;;;;;;24.60;14.70;;;;;;;0.70;71.17;99428.35;103529;1306;24190;-80
2022/12/11 02:08:05;;;;;;;24.90;15.10;;;;;;;0.65;71.31;99426.19;103454;1307;22710;-83
2022/12/11 02:10:52;;;;;;;25.00;15.60;;;;;;;0.63;71.29;99421.13;103571;1307;25202;-82
2022/12/11 02:13:24;;;;;;;23.90;15.80;;;;;;;0.60;71.24;99415.71;103417;1307;22468;-80
2022/12/11 02:15:53;;;;;;;24.50;15.80;;;;;;;0.57;71.32;99412.20;103524;1298;25953;-81
2022/12/11 02:18:30;;;;;;;26.60;16.10;;;;;;;0.53;71.38;99408.67;103587;1304;22460;-83
2022/12/11 02:21:10;;;;;;;28.50;16.50;;;;;;;0.53;71.46;99409.70;103310;1305;22475;-83
2022/12/11 02:24:03;;;;;;;28.90;17.40;;;;;;;0.57;71.47;99400.23;103406;1307;22477;-82
2022/12/11 02:27:14;;;;;;;28.90;17.40;;;;;;;0.61;71.58;99404.46;103364;1307;25196;-83
2022/12/11 02:29:54;;;;;;;26.30;16.60;;;;;;;0.60;71.58;99406.70;103498;1307;25820;-82
2022/12/11 02:32:26;;;;;;;28.90;18.20;;;;;;;0.58;71.53;99403.20;103610;1306;22462;-82
2022/12/11 02:35:04;;;;;;;27.40;17.50;;;;;;;0.58;71.62;99408.58;103776;1307;22462;-80
2022/12/11 02:37:34;;;;;;;29.50;19.00;;;;;;;0.60;71.66;99406.69;103953;1306;22520;-82
2022/12/11 02:40:05;;;;;;;29.90;18.40;;;;;;;0.62;71.74;99405.86;104743;1307;22936;-80
2022/12/11 02:42:33;;;;;;;28.70;18.00;;;;;;;0.60;71.49;99404.27;103785;1306;23897;-79
2022/12/11 02:45:02;;;;;;;31.80;18.30;;;;;;;0.57;71.63;99397.45;104298;1307;22487;-81
2022/12/11 02:47:31;;;;;;;31.20;17.80;;;;;;;0.57;71.56;99394.35;103563;1306;197169;-82
2022/12/11 02:50:01;;;;;;;32.30;19.20;;;;;;;0.53;71.35;99390.83;104390;1307;22482;-81
2022/12/11 02:52:31;;;;;;;35.20;20.20;;;;;;;0.52;71.57;99385.60;104698;1300;22558;-79
2022/12/11 02:54:59;;;;;;;38.60;21.10;;;;;;;0.44;71.33;99385.48;103919;1300;24248;-81
2022/12/11 02:57:42;;;;;;;33.00;20.40;;;;;;;0.43;71.90;99385.64;103886;1306;22455;-82
2022/12/11 03:00:10;;;;;;;33.40;20.70;;;;;;;0.45;72.01;99387.75;103683;1307;24234;-84
2022/12/11 03:02:37;;;;;;;34.90;21.80;;;;;;;0.51;72.21;99394.95;103937;1305;24236;-81
2022/12/11 03:05:04;;;;;;;35.20;21.90;;;;;;;0.54;72.09;99393.95;104220;1307;22444;-82
2022/12/11 03:07:35;;;;;;;36.20;21.90;;;;;;;0.58;72.11;99391.76;104406;1290;22519;-80
2022/12/11 03:10:02;;;;;;;37.60;22.60;;;;;;;0.59;71.81;99393.67;104171;1306;22516;-80
2022/12/11 03:12:32;;;;;;;33.20;21.50;;;;;;;0.53;71.74;99395.67;103880;1307;22470;-78
2022/12/11 03:15:01;;;;;;;35.20;21.90;;;;;;;0.50;71.97;99401.52;103780;1307;22493;-80
2022/12/11 03:17:53;;;;;;;38.10;23.20;;;;;;;0.50;72.15;99401.52;103505;1307;22721;-83
2022/12/11 03:20:40;;;;;;;35.60;21.40;;;;;;;0.52;71.87;99396.70;103479;1307;24220;-82
2022/12/11 03:23:34;;;;;;;33.10;19.80;;;;;;;0.46;71.98;99396.77;103503;1294;22539;-81
2022/12/11 03:26:12;;;;;;;33.30;19.90;;;;;;;0.44;71.92;99396.05;103542;1307;22549;-83
2022/12/11 03:29:24;;;;;;;34.20;20.30;;;;;;;0.45;71.96;99394.52;103464;1291;25339;-81
2022/12/11 03:32:04;;;;;;;33.50;19.80;;;;;;;0.40;71.83;99396.69;103157;1311;25538;-80
2022/12/11 03:34:43;;;;;;;33.00;18.40;;;;;;;0.35;71.85;99404.91;103317;1307;22441;-78
2022/12/11 03:37:13;;;;;;;32.10;18.30;;;;;;;0.33;72.03;99408.00;103239;1310;24217;-77
2022/12/11 03:39:45;;;;;;;26.50;17.00;;;;;;;0.26;71.95;99408.58;103184;1310;22480;-78
2022/12/11 03:42:13;;;;;;;29.10;18.20;;;;;;;0.28;72.19;99404.44;103102;1310;22477;-81
2022/12/11 03:44:43;;;;;;;30.30;18.60;;;;;;;0.28;72.32;99405.32;103113;1310;22463;-81
2022/12/11 03:47:11;;;;;;;28.30;17.60;;;;;;;0.30;72.23;99406.39;103173;1303;22698;-81
2022/12/11 03:49:41;;;;;;;30.10;16.10;;;;;;;0.25;71.91;99406.66;103237;1308;23866;-79
2022/12/11 03:52:10;;;;;;;28.60;18.10;;;;;;;0.21;71.88;99404.84;103321;1310;24342;-81
2022/12/11 03:54:39;;;;;;;31.50;18.80;;;;;;;0.23;72.20;99406.29;103256;1307;22471;-80
2022/12/11 03:57:07;;;;;;;25.70;16.80;;;;;;;0.30;72.21;99406.91;103444;1305;25264;-80
2022/12/11 03:59:33;;;;;;;32.30;19.20;;;;;;;0.33;71.95;99407.30;103447;1307;22470;-83
2022/12/11 04:01:59;;;;;;;29.80;18.40;;;;;;;0.22;71.52;99406.08;103382;1307;22474;-82
2022/12/11 04:04:25;;;;;;;28.00;17.80;;;;;;;0.18;72.02;99406.88;103453;1307;25550;-81
2022/12/11 04:06:51;;;;;;;30.80;18.90;;;;;;;0.24;72.32;99399.55;103533;1307;22498;-80
2022/12/11 04:09:17;;;;;;;28.40;18.40;;;;;;;0.30;72.02;99393.08;103540;1306;22467;-80
2022/12/11 04:11:43;;;;;;;30.30;19.10;;;;;;;0.32;72.10;99388.06;103223;1310;22492;-80
2022/12/11 04:17:00;;;;;;;28.60;18.00;;;;;;;0.36;71.76;99380.69;103015;1310;25293;-77
2022/12/11 04:24:59;;;;;;;32.70;20.20;;;;;;;0.05;71.80;99375.33;103082;1311;24359;-79
2022/12/11 04:30:39;;;;;;;27.70;17.10;;;;;;;0.03;71.60;99375.98;103225;1307;22466;-80
2022/12/11 04:33:05;;;;;;;28.10;16.40;;;;;;;-0.04;71.70;99374.66;103399;1307;22462;-81
2022/12/11 04:35:32;;;;;;;27.10;17.30;;;;;;;-0.07;71.53;99372.19;103332;1307;23875;-81
2022/12/11 04:37:58;;;;;;;30.50;18.40;;;;;;;-0.10;71.72;99376.11;103335;1307;23402;-81
2022/12/11 04:40:24;;;;;;;26.70;16.60;;;;;;;-0.11;71.64;99376.26;103245;1306;25168;-81
2022/12/11 04:42:50;;;;;;;27.40;18.20;;;;;;;-0.08;71.99;99372.66;103327;1307;22745;-82
2022/12/11 04:45:17;;;;;;;31.00;17.40;;;;;;;-0.05;71.66;99370.31;102954;1312;22470;-82
2022/12/11 04:47:43;;;;;;;25.20;17.60;;;;;;;-0.05;71.85;99368.23;103071;1312;24299;-81
2022/12/11 04:50:11;;;;;;;28.90;18.30;;;;;;;-0.02;71.92;99371.23;103033;1312;22761;-79
2022/12/11 04:52:38;;;;;;;26.70;16.60;;;;;;;-0.05;71.58;99367.89;103044;1305;25555;-80
2022/12/11 04:55:05;;;;;;;32.60;18.80;;;;;;;-0.15;71.39;99366.49;102720;1310;22496;-78
2022/12/11 04:57:31;;;;;;;30.70;18.80;;;;;;;-0.17;71.94;99365.95;102903;1315;24334;-83
2022/12/11 04:59:58;;;;;;;29.50;18.20;;;;;;;-0.11;72.03;99360.52;102732;1316;24718;-82
2022/12/11 05:02:25;;;;;;;30.20;18.80;;;;;;;-0.06;71.89;99355.92;102597;1315;24295;-78
2022/12/11 05:04:52;;;;;;;32.20;19.90;;;;;;;-0.07;71.98;99357.63;103022;1310;22717;-77
2022/12/11 05:07:18;;;;;;;29.00;19.40;;;;;;;-0.02;72.19;99348.20;103080;1310;22491;-79
2022/12/11 05:09:44;;;;;;;33.50;20.50;;;;;;;0.04;72.20;99342.06;103142;1304;26052;-80
2022/12/11 05:12:10;;;;;;;35.10;20.90;;;;;;;0.09;72.11;99333.66;102487;1318;22673;-82
2022/12/11 05:14:37;;;;;;;30.50;18.60;;;;;;;0.08;71.81;99331.92;102300;1319;22486;-79
2022/12/11 05:17:03;;;;;;;29.60;19.40;;;;;;;0.00;71.79;99328.15;102640;1317;22606;-80
2022/12/11 05:19:29;;;;;;;29.90;19.20;;;;;;;-0.04;71.73;99323.23;102643;1318;22493;-79
2022/12/11 05:21:56;;;;;;;28.20;17.20;;;;;;;-0.05;72.02;99318.20;102684;1317;24374;-83
2022/12/11 05:24:23;;;;;;;32.20;20.40;;;;;;;-0.07;71.98;99316.27;102796;1317;25830;-80
2022/12/11 05:26:49;;;;;;;29.00;18.60;;;;;;;-0.04;72.14;99308.52;102829;1318;22597;-82
2022/12/11 05:29:15;;;;;;;32.80;18.10;;;;;;;0.03;72.12;99308.30;102689;1321;25254;-79
2022/12/11 05:31:41;;;;;;;29.90;19.40;;;;;;;0.09;72.10;99306.83;103387;1315;25363;-82
2022/12/11 05:34:07;;;;;;;29.70;19.40;;;;;;;0.14;72.02;99304.13;103234;1310;23872;-83
2022/12/11 05:36:34;;;;;;;28.10;17.60;;;;;;;0.15;71.93;99301.05;103370;1304;25621;-82
2022/12/11 05:39:03;;;;;;;27.80;19.10;;;;;;;0.10;71.63;99300.27;104664;1310;22543;-83
2022/12/11 05:41:31;;;;;;;30.70;20.70;;;;;;;0.04;72.00;99298.95;104521;1309;22471;-83
2022/12/11 05:43:58;;;;;;;28.90;18.70;;;;;;;-0.03;72.00;99298.52;103473;1310;23877;-81
2022/12/11 05:46:26;;;;;;;30.90;19.80;;;;;;;-0.02;72.31;99294.55;103226;1302;23887;-79
2022/12/11 05:49:00;;;;;;;34.60;20.80;;;;;;;0.01;72.39;99288.70;103629;1307;22481;-80
2022/12/11 05:51:28;;;;;;;31.70;20.70;;;;;;;0.01;71.93;99286.77;103636;1305;25437;-80
2022/12/11 05:53:55;;;;;;;32.90;19.40;;;;;;;-0.19;71.74;99287.68;103385;1301;24301;-84
2022/12/11 05:56:32;;;;;;;30.40;19.00;;;;;;;-0.23;72.45;99285.19;103258;1307;24237;-83
2022/12/11 05:59:00;;;;;;;26.70;18.30;;;;;;;-0.19;72.62;99283.54;103635;1306;22480;-81
2022/12/11 06:01:31;;;;;;;28.60;19.00;;;;;;;-0.17;72.57;99280.29;103509;1307;22467;-81
2022/12/11 06:03:58;;;;;;;34.20;21.50;;;;;;;-0.16;72.91;99280.30;103621;1307;22519;-82
2022/12/11 06:06:26;;;;;;;30.00;18.70;;;;;;;-0.13;72.78;99278.44;103204;1310;22614;-88
2022/12/11 06:08:54;;;;;;;24.50;16.10;;;;;;;-0.16;72.55;99280.66;103335;1310;22625;-80
2022/12/11 06:11:22;;;;;;;28.00;16.90;;;;;;;-0.24;72.36;99279.98;103364;1304;24272;-82
2022/12/11 06:13:51;;;;;;;24.20;16.10;;;;;;;-0.25;72.83;99282.92;103432;1309;22476;-80
2022/12/11 06:16:17;;;;;;;25.30;16.00;;;;;;;-0.20;72.90;99280.05;103287;1299;25786;-81
2022/12/11 06:18:44;;;;;;;22.30;15.40;;;;;;;-0.22;72.69;99284.35;103251;1310;25536;-81
2022/12/11 06:21:21;;;;;;;25.80;16.10;;;;;;;-0.24;72.92;99283.63;103237;1310;24244;-81
2022/12/11 06:23:50;;;;;;;23.90;15.40;;;;;;;-0.23;72.95;99283.64;103290;1307;24225;-78
2022/12/11 06:26:18;;;;;;;22.90;15.40;;;;;;;-0.22;72.53;99281.40;103342;1307;25238;-79
2022/12/11 06:28:46;;;;;;;25.30;16.30;;;;;;;-0.24;72.68;99286.04;103314;1307;24295;-76
2022/12/11 06:31:13;;;;;;;25.50;16.20;;;;;;;-0.22;72.85;99293.52;103385;1307;25236;-81
2022/12/11 06:33:42;;;;;;;25.40;17.50;;;;;;;-0.19;72.88;99292.72;103553;1307;22577;-79
2022/12/11 06:36:32;;;;;;;25.40;15.90;;;;;;;-0.18;72.92;99290.48;103516;1307;22467;-82
2022/12/11 06:38:58;;;;;;;24.20;16.50;;;;;;;-0.19;72.85;99292.54;103599;1301;22520;-80
2022/12/11 06:41:25;;;;;;;26.60;17.00;;;;;;;-0.18;72.87;99287.70;103691;1307;22505;-80
2022/12/11 06:43:51;;;;;;;23.50;16.20;;;;;;;-0.21;72.73;99289.38;103451;1307;22580;-79
2022/12/11 06:46:18;;;;;;;27.40;17.70;;;;;;;-0.23;72.71;99288.82;103563;1307;22532;-78
2022/12/11 06:48:46;;;;;;;25.30;16.10;;;;;;;-0.29;72.67;99287.35;103681;1305;22549;-77
2022/12/11 06:51:17;;;;;;;26.00;16.20;;;;;;;-0.27;72.73;99290.48;103458;1307;22477;-79
2022/12/11 06:53:43;;;;;;;24.50;16.70;;;;;;;-0.25;72.64;99291.91;103515;1302;22477;-79
2022/12/11 06:56:14;;;;;;;23.50;15.00;;;;;;;-0.24;72.73;99295.91;103498;1310;22472;-81
2022/12/11 06:58:42;;;;;;;23.80;16.30;;;;;;;-0.27;72.16;99294.30;105292;1313;22514;-85
2022/12/11 07:01:21;;;;;;;24.50;16.30;;;;;;;-0.31;72.64;99296.32;104409;1307;26612;-79
2022/12/11 07:03:49;;;;;;;23.20;15.40;;;;;;;-0.27;72.65;99297.59;103522;1313;24261;-82
2022/12/11 07:06:15;;;;;;;23.80;16.60;;;;;;;-0.24;72.45;99290.88;103731;1313;22490;-80
2022/12/11 07:08:42;;;;;;;21.10;14.80;;;;;;;-0.27;72.47;99290.50;103504;1297;22474;-80
2022/12/11 07:11:14;;;;;;;21.60;15.10;;;;;;;-0.32;72.22;99290.06;103267;1313;24226;-83
2022/12/11 07:13:43;;;;;;;23.40;16.30;;;;;;;-0.37;72.30;99290.15;103272;1309;24286;-81
2022/12/11 07:16:12;;;;;;;21.20;14.50;;;;;;;-0.38;72.50;99289.80;103145;1307;24217;-83
2022/12/11 07:18:40;;;;;;;21.30;15.30;;;;;;;-0.43;71.82;99284.16;103807;1307;24357;-81
2022/12/11 07:21:08;;;;;;;22.20;14.20;;;;;;;-0.50;72.21;99287.67;103808;1307;22480;-82
2022/12/11 07:23:35;;;;;;;21.80;14.00;;;;;;;-0.50;71.94;99284.73;103829;1307;24229;-80
2022/12/11 07:26:06;;;;;;;21.90;15.00;;;;;;;-0.64;72.15;99280.16;103595;1307;22458;-82
2022/12/11 07:28:34;;;;;;;20.80;13.80;;;;;;;-0.59;72.58;99277.31;103786;1307;22461;-83
2022/12/11 07:31:20;;;;;;;21.60;14.70;;;;;;;-0.54;72.27;99276.02;103618;1306;23875;-83
2022/12/11 07:33:52;;;;;;;22.00;15.00;;;;;;;-0.67;72.06;99273.55;103592;1307;22470;-80
2022/12/11 07:36:18;;;;;;;19.50;14.00;;;;;;;-0.69;72.07;99264.66;103442;1307;25347;-79
2022/12/11 07:38:45;;;;;;;19.00;13.30;;;;;;;-0.73;72.12;99261.84;103714;1305;22401;-81
2022/12/11 07:41:14;;;;;;;21.50;15.40;;;;;;;-0.73;72.30;99259.77;103383;1302;24188;-83
2022/12/11 07:43:41;;;;;;;21.40;13.60;;;;;;;-0.73;71.95;99257.68;103711;1307;22777;-83
2022/12/11 07:46:14;;;;;;;18.50;13.00;;;;;;;-0.84;72.01;99260.44;103242;1313;24683;-80
2022/12/11 07:48:43;;;;;;;19.80;13.60;;;;;;;-0.82;72.50;99259.41;103268;1310;22487;-81
2022/12/11 07:51:13;;;;;;;19.20;13.40;;;;;;;-0.73;72.70;99257.88;103170;1310;25307;-83
2022/12/11 07:53:44;;;;;;;16.30;11.70;;;;;;;-0.65;72.38;99253.34;103064;1311;22509;-80
2022/12/11 07:56:10;;;;;;;17.30;12.10;;;;;;;-0.66;72.14;99248.66;103053;1304;24257;-82
2022/12/11 07:58:37;;;;;;;18.70;12.90;;;;;;;-0.71;71.52;99246.15;103494;1310;22475;-80
2022/12/11 08:01:05;;;;;;;19.00;12.60;;;;;;;-0.85;71.79;99244.17;103472;1310;24237;-84
2022/12/11 08:03:32;;;;;;;18.40;12.60;;;;;;;-0.83;72.33;99246.28;102899;1310;25282;-82
2022/12/11 08:05:58;;;;;;;17.70;12.40;;;;;;;-0.79;72.14;99246.88;103099;1310;22496;-80
2022/12/11 08:08:25;;;;;;;23.90;12.60;;;;;;;-0.78;72.05;99248.79;103164;1310;23075;-81
2022/12/11 08:10:51;;;;;;;17.90;13.20;;;;;;;-0.76;72.18;99251.42;103231;1310;22471;-81
2022/12/11 08:13:17;;;;;;;21.60;13.70;;;;;;;-0.71;72.10;99252.02;103343;1310;24244;-82
2022/12/11 08:15:44;;;;;;;20.50;12.30;;;;;;;-0.72;71.95;99252.52;103196;1311;25674;-81
2022/12/11 08:18:12;;;;;;;17.90;13.20;;;;;;;-0.77;71.44;99245.86;103238;1310;22837;-83
2022/12/11 08:20:40;;;;;;;16.50;12.50;;;;;;;-0.87;71.72;99244.65;102878;1314;22519;-81
2022/12/11 08:23:06;;;;;;;18.40;13.50;;;;;;;-0.86;71.97;99242.42;103383;1295;25918;-82
2022/12/11 08:25:33;;;;;;;18.50;12.00;;;;;;;-0.82;72.06;99239.73;103580;1310;22859;-81
2022/12/11 08:27:59;;;;;;;16.90;11.40;;;;;;;-0.76;71.77;99236.37;103811;1310;24233;-81
2022/12/11 08:30:26;;;;;;;18.00;12.30;;;;;;;-0.84;71.51;99233.98;104057;1310;23864;-82
2022/12/11 08:32:53;;;;;;;18.70;12.30;;;;;;;-0.93;71.31;99230.19;103791;1310;23895;-79
2022/12/11 08:35:19;;;;;;;16.30;11.90;;;;;;;-0.95;71.99;99233.09;103307;1310;23908;-81
2022/12/11 08:37:45;;;;;;;17.70;12.30;;;;;;;-0.91;71.90;99232.14;103293;1310;22908;-81
2022/12/11 08:40:12;;;;;;;19.10;12.90;;;;;;;-0.84;71.94;99229.83;103408;1305;24027;-84
2022/12/11 08:42:39;;;;;;;16.20;11.40;;;;;;;-0.83;71.76;99226.90;103497;1307;22593;-83
2022/12/11 08:45:06;;;;;;;17.20;11.90;;;;;;;-0.87;71.66;99221.48;103188;1310;22480;-82
2022/12/11 08:47:34;;;;;;;19.00;12.70;;;;;;;-0.90;71.83;99220.23;103131;1310;23915;-81
2022/12/11 08:50:01;;;;;;;17.90;12.80;;;;;;;-0.89;71.84;99219.20;103207;1311;23091;-81
2022/12/11 08:52:30;;;;;;;19.20;12.90;;;;;;;-0.95;71.46;99223.41;103118;1310;23925;-82
2022/12/11 08:54:57;;;;;;;16.40;11.80;;;;;;;-1.04;71.59;99217.73;103285;1311;22499;-81
2022/12/11 08:57:23;;;;;;;19.30;13.10;;;;;;;-0.97;72.10;99219.56;102837;1313;22456;-80
2022/12/11 08:59:49;;;;;;;19.90;13.20;;;;;;;-0.96;71.82;99218.89;103028;1312;22478;-81
2022/12/11 09:02:16;;;;;;;20.10;13.00;;;;;;;-0.99;71.64;99216.77;103224;1303;25590;-82
2022/12/11 09:04:43;;;;;;;19.30;12.70;;;;;;;-0.96;71.99;99213.36;103589;1307;22447;-80
2022/12/11 09:07:09;;;;;;;19.70;12.30;;;;;;;-0.88;71.87;99215.92;103638;1299;22589;-80
2022/12/11 09:09:35;;;;;;;17.90;11.90;;;;;;;-0.92;71.47;99213.95;103340;1307;25726;-81
2022/12/11 09:12:03;;;;;;;16.50;11.60;;;;;;;-1.02;71.41;99209.28;103528;1298;22420;-80
2022/12/11 09:14:29;;;;;;;18.50;12.50;;;;;;;-1.03;71.89;99200.63;103592;1297;22455;-82
2022/12/11 09:16:56;;;;;;;18.50;11.30;;;;;;;-0.97;72.04;99193.48;103399;1307;22480;-80
2022/12/11 09:19:22;;;;;;;18.10;11.90;;;;;;;-0.98;71.81;99193.11;103422;1307;25238;-81
2022/12/11 09:21:50;;;;;;;19.40;12.20;;;;;;;-0.97;71.78;99193.98;103357;1305;24285;-81
2022/12/11 09:24:16;;;;;;;19.70;13.10;;;;;;;-1.12;71.21;99191.48;103506;1307;23346;-84
2022/12/11 09:26:42;;;;;;;17.90;11.50;;;;;;;-1.20;71.49;99184.23;103746;1307;22476;-83
2022/12/11 09:29:10;;;;;;;17.80;12.40;;;;;;;-1.27;71.72;99181.00;103768;1305;26466;-81
2022/12/11 09:31:36;;;;;;;17.10;10.50;;;;;;;-1.20;72.32;99166.09;104040;1299;25722;-83
2022/12/11 09:34:06;;;;;;;18.00;11.90;;;;;;;-1.13;72.39;99170.71;103283;1307;22470;-81
2022/12/11 09:36:33;;;;;;;19.70;11.80;;;;;;;-1.01;72.62;99169.89;103614;1303;25509;-83
2022/12/11 09:39:02;;;;;;;18.50;12.50;;;;;;;-0.89;72.35;99164.23;103400;1307;24234;-82
2022/12/11 09:42:03;;;;;;;19.80;13.00;;;;;;;-0.89;71.71;99154.91;103429;1307;22540;-84
2022/12/11 09:44:58;;;;;;;20.60;13.00;;;;;;;-0.98;71.74;99150.24;103352;1307;22459;-82
2022/12/11 09:47:38;;;;;;;21.10;13.20;;;;;;;-1.05;71.35;99145.64;103869;1307;22434;-82
2022/12/11 09:50:07;;;;;;;16.40;11.40;;;;;;;-1.05;71.84;99140.45;104248;1307;23669;-78
2022/12/11 09:52:33;;;;;;;17.20;11.60;;;;;;;-1.05;71.85;99134.58;104571;1307;22534;-79
2022/12/11 09:55:03;;;;;;;17.60;12.10;;;;;;;-1.00;71.97;99132.59;104035;1307;22479;-84
2022/12/11 09:58:00;;;;;;;18.90;11.80;;;;;;;-1.00;71.50;99133.27;103663;1307;22463;-82
2022/12/11 10:01:00;;;;;;;15.60;11.20;;;;;;;-0.97;71.67;99126.23;104505;1301;22462;-79
2022/12/11 10:03:52;;;;;;;18.30;11.90;;;;;;;-0.89;71.86;99117.38;104192;1305;22461;-79
2022/12/11 10:06:29;;;;;;;21.40;12.40;;;;;;;-0.87;71.82;99116.20;104492;1307;22451;-78
2022/12/11 10:09:23;;;;;;;20.00;12.50;;;;;;;-0.79;71.74;99124.64;104063;1307;26483;-77
2022/12/11 10:12:00;;;;;;;17.70;12.40;;;;;;;-0.72;71.51;99125.08;103747;1306;23205;-81
2022/12/11 10:14:41;;;;;;;21.50;13.00;;;;;;;-0.79;71.26;99113.92;103591;1307;24231;-81
2022/12/11 10:17:24;;;;;;;16.90;12.00;;;;;;;-0.74;71.63;99109.67;103388;1304;22473;-81
2022/12/11 10:19:50;;;;;;;19.90;13.30;;;;;;;-0.73;71.41;99108.13;103316;1307;22467;-79
2022/12/11 10:22:23;;;;;;;19.90;12.80;;;;;;;-0.71;71.24;99111.27;103446;1307;25482;-81
2022/12/11 10:25:03;;;;;;;15.60;11.70;;;;;;;-0.79;71.24;99103.38;103610;1307;24873;-81
2022/12/11 10:27:39;;;;;;;18.00;12.10;;;;;;;-0.82;71.16;99096.77;103620;1299;22561;-80
2022/12/11 10:30:24;;;;;;;18.80;11.50;;;;;;;-0.88;71.22;99094.23;103391;1307;22456;-81
2022/12/11 10:33:19;;;;;;;15.80;11.00;;;;;;;-1.05;70.81;99090.50;103671;1307;24262;-80
2022/12/11 10:35:57;;;;;;;17.90;12.70;;;;;;;-1.17;71.30;99091.35;103464;1306;25479;-81
2022/12/11 10:38:23;;;;;;;17.50;11.20;;;;;;;-1.18;71.89;99089.77;103814;1307;22524;-79
2022/12/11 10:40:58;;;;;;;17.60;12.10;;;;;;;-1.13;72.38;99089.67;103613;1306;25468;-79
2022/12/11 10:43:35;;;;;;;16.80;11.70;;;;;;;-1.08;72.04;99089.06;103244;1307;25283;-81
2022/12/11 10:46:03;;;;;;;16.60;11.80;;;;;;;-1.01;72.25;99084.02;103383;1306;22465;-81
2022/12/11 10:48:29;;;;;;;18.60;11.80;;;;;;;-1.09;71.94;99076.09;103416;1307;24237;-81
2022/12/11 10:51:08;;;;;;;18.30;11.40;;;;;;;-1.16;71.58;99077.35;103497;1307;22499;-82
2022/12/11 10:53:35;;;;;;;14.80;10.90;;;;;;;-1.22;72.11;99071.73;103593;1307;24381;-80
2022/12/11 10:56:02;;;;;;;15.20;10.10;;;;;;;-1.13;72.59;99064.10;103463;1307;25211;-80
2022/12/11 10:58:32;;;;;;;16.60;11.10;;;;;;;-1.03;72.18;99057.20;103787;1307;22587;-81
2022/12/11 11:01:08;;;;;;;14.20;9.60;;;;;;;-0.97;72.06;99051.59;103885;1275;23212;-82
2022/12/11 11:03:50;;;;;;;;;;;;;;;-0.94;71.91;99044.02;103810;1307;22538;-86
2022/12/11 11:06:20;;;;;;;19.00;11.50;;;;;;;-0.96;71.33;99040.36;104562;1307;25544;-85
2022/12/11 11:08:56;;;;;;;15.90;10.70;;;;;;;-1.13;71.40;99031.80;105879;1307;25422;-85
2022/12/11 11:11:27;;;;;;;18.10;11.70;;;;;;;-1.20;71.77;99030.98;105106;1307;22520;-85
2022/12/11 11:14:04;;;;;;;13.20;10.00;;;;;;;-1.25;73.98;99030.39;105053;1307;22429;-84
2022/12/11 11:16:31;;;;;;;16.50;11.00;;;;;;;-1.29;74.82;99025.82;105216;1296;24310;-84
2022/12/11 11:18:57;;;;;;;15.50;10.30;;;;;;;-1.33;75.03;99025.92;104887;1307;22779;-85
2022/12/11 11:21:27;;;;;;;15.40;11.10;;;;;;;-1.36;74.57;99024.68;104969;1293;24015;-85
2022/12/11 11:23:53;;;;;;;14.20;10.00;;;;;;;-1.45;74.45;99017.96;104855;1305;22462;-83
2022/12/11 11:26:24;;;;;;;15.60;10.80;;;;;;;-1.35;74.88;99020.89;104139;1307;22656;-86
2022/12/11 11:29:24;;;;;;;14.50;11.20;;;;;;;-1.24;74.59;99014.86;104242;1307;22450;-86
2022/12/11 11:31:50;;;;;;;18.20;11.70;;;;;;;-1.14;74.22;99015.36;104940;1306;22462;-86
2022/12/11 11:34:22;;;;;;;16.90;12.20;;;;;;;-1.08;73.84;99011.30;103706;1301;25300;-87
2022/12/11 11:36:57;;;;;;;13.50;10.20;;;;;;;-1.09;73.18;99011.12;103511;1307;23050;-86
2022/12/11 11:39:39;;;;;;;16.50;12.30;;;;;;;-1.16;73.32;99006.86;104013;1307;25317;-85